createdAt,value
2022-10-05T00:00:21.147Z,100
2022-10-05T00:01:21.182Z,100
2022-10-05T00:02:21.150Z,100
2022-10-05T00:03:21.134Z,100
2022-10-05T00:04:21.136Z,100
2022-10-05T00:05:21.293Z,100
2022-10-05T00:06:21.148Z,100
2022-10-05T00:07:21.125Z,100
2022-10-05T00:08:21.129Z,100
2022-10-05T00:09:21.142Z,100
2022-10-05T00:10:21.172Z,100
2022-10-05T00:11:21.138Z,100
2022-10-05T00:12:21.131Z,100
2022-10-05T00:13:21.139Z,100
2022-10-05T00:14:21.130Z,100
2022-10-05T00:15:21.172Z,100
2022-10-05T00:16:21.211Z,100
2022-10-05T00:17:21.331Z,100
2022-10-05T00:18:21.140Z,100
2022-10-05T00:19:21.125Z,100
2022-10-05T00:20:21.150Z,100
2022-10-05T00:21:21.157Z,100
2022-10-05T00:22:21.137Z,100
2022-10-05T00:23:21.227Z,100
2022-10-05T00:24:21.122Z,100
2022-10-05T00:25:21.197Z,100
2022-10-05T00:26:21.235Z,100
2022-10-05T00:27:21.544Z,100
2022-10-05T00:28:21.837Z,100
2022-10-05T00:29:21.402Z,100
2022-10-05T00:30:21.302Z,100
2022-10-05T00:31:21.675Z,100
2022-10-05T00:32:21.320Z,100
2022-10-05T00:33:21.389Z,100
2022-10-05T00:34:21.765Z,100
2022-10-05T00:35:21.958Z,100
2022-10-05T00:36:22.167Z,100
2022-10-05T00:37:21.281Z,100
2022-10-05T00:38:21.139Z,100
2022-10-05T00:39:21.136Z,100
2022-10-05T00:40:21.196Z,100
2022-10-05T00:41:21.412Z,100
2022-10-05T00:42:21.127Z,100
2022-10-05T00:43:21.120Z,100
2022-10-05T00:44:21.138Z,100
2022-10-05T00:45:21.152Z,100
2022-10-05T00:46:21.154Z,100
2022-10-05T00:47:21.142Z,100
2022-10-05T00:48:21.116Z,100
2022-10-05T00:49:21.117Z,100
2022-10-05T00:50:21.127Z,100
2022-10-05T00:51:21.134Z,100
2022-10-05T00:52:21.118Z,100
2022-10-05T00:53:21.108Z,100
2022-10-05T00:54:21.129Z,100
2022-10-05T00:55:21.149Z,100
2022-10-05T00:56:21.145Z,100
2022-10-05T00:57:21.133Z,100
2022-10-05T00:58:21.250Z,100
2022-10-05T00:59:21.139Z,100
2022-10-05T01:00:21.245Z,100
2022-10-05T01:01:21.179Z,100
2022-10-05T01:02:21.198Z,100
2022-10-05T01:03:21.126Z,100
2022-10-05T01:04:21.135Z,100
2022-10-05T01:05:21.135Z,100
2022-10-05T01:06:21.149Z,100
2022-10-05T01:07:21.145Z,100
2022-10-05T01:08:21.136Z,100
2022-10-05T01:09:21.138Z,100
2022-10-05T01:10:21.132Z,100
2022-10-05T01:11:21.188Z,100
2022-10-05T01:12:21.137Z,100
2022-10-05T01:13:21.117Z,100
2022-10-05T01:14:21.132Z,100
2022-10-05T01:15:21.130Z,100
2022-10-05T01:16:21.188Z,100
2022-10-05T01:17:21.125Z,100
2022-10-05T01:18:21.130Z,100
2022-10-05T01:19:21.130Z,100
2022-10-05T01:20:21.134Z,100
2022-10-05T01:21:21.215Z,100
2022-10-05T01:22:21.138Z,100
2022-10-05T01:23:21.143Z,100
2022-10-05T01:24:21.136Z,100
2022-10-05T01:25:21.116Z,100
2022-10-05T01:26:21.177Z,100
2022-10-05T01:27:21.140Z,100
2022-10-05T01:28:21.260Z,100
2022-10-05T01:29:21.143Z,100
2022-10-05T01:30:21.248Z,100
2022-10-05T01:31:21.435Z,100
2022-10-05T01:32:21.384Z,100
2022-10-05T01:33:21.162Z,100
2022-10-05T01:34:21.348Z,100
2022-10-05T01:35:21.166Z,100
2022-10-05T01:36:21.143Z,100
2022-10-05T01:37:21.129Z,100
2022-10-05T01:38:21.410Z,100
2022-10-05T01:39:21.121Z,100
2022-10-05T01:40:21.127Z,100
2022-10-05T01:41:21.129Z,100
2022-10-05T01:42:21.137Z,100
2022-10-05T01:43:21.128Z,100
2022-10-05T01:44:21.137Z,100
2022-10-05T01:45:21.124Z,100
2022-10-05T01:46:21.173Z,100
2022-10-05T01:47:21.140Z,100
2022-10-05T01:48:21.266Z,100
2022-10-05T01:49:21.133Z,100
2022-10-05T01:50:21.115Z,100
2022-10-05T01:51:21.334Z,100
2022-10-05T01:52:21.690Z,100
2022-10-05T01:53:21.694Z,100
2022-10-05T01:54:20.999Z,100
2022-10-05T01:55:21.174Z,100
2022-10-05T01:56:21.470Z,100
2022-10-05T01:57:21.759Z,100
2022-10-05T01:58:21.172Z,100
2022-10-05T01:59:21.584Z,100
2022-10-05T02:00:21.839Z,100
2022-10-05T02:01:21.195Z,100
2022-10-05T02:02:21.358Z,100
2022-10-05T02:03:21.159Z,100
2022-10-05T02:04:56.818Z,100
2022-10-05T02:05:21.137Z,100
2022-10-05T02:06:21.468Z,100
2022-10-05T02:07:21.570Z,100
2022-10-05T02:08:21.303Z,100
2022-10-05T02:09:21.346Z,100
2022-10-05T02:10:21.395Z,100
2022-10-05T02:11:21.679Z,100
2022-10-05T02:12:21.353Z,100
2022-10-05T02:13:21.656Z,100
2022-10-05T02:14:21.511Z,100
2022-10-05T02:15:21.755Z,100
2022-10-05T02:16:21.520Z,100
2022-10-05T02:17:21.766Z,100
2022-10-05T02:18:22.120Z,100
2022-10-05T02:19:21.112Z,100
2022-10-05T02:20:21.530Z,100
2022-10-05T02:21:21.598Z,100
2022-10-05T02:22:21.215Z,100
2022-10-05T02:23:21.397Z,100
2022-10-05T02:24:21.228Z,100
2022-10-05T02:25:21.486Z,100
2022-10-05T02:26:21.131Z,100
2022-10-05T02:27:21.448Z,100
2022-10-05T02:28:21.202Z,100
2022-10-05T02:29:21.128Z,100
2022-10-05T02:30:21.136Z,100
2022-10-05T02:31:21.187Z,100
2022-10-05T02:32:21.132Z,100
2022-10-05T02:33:21.207Z,100
2022-10-05T02:34:21.134Z,100
2022-10-05T02:35:21.350Z,100
2022-10-05T02:36:21.146Z,100
2022-10-05T02:37:21.140Z,100
2022-10-05T02:38:21.297Z,100
2022-10-05T02:39:21.136Z,100
2022-10-05T02:40:21.144Z,100
2022-10-05T02:41:21.123Z,100
2022-10-05T02:42:21.141Z,100
2022-10-05T02:43:21.152Z,100
2022-10-05T02:44:21.141Z,100
2022-10-05T02:45:21.151Z,100
2022-10-05T02:46:21.212Z,100
2022-10-05T02:47:21.130Z,100
2022-10-05T02:48:21.151Z,100
2022-10-05T02:49:21.156Z,100
2022-10-05T02:50:21.143Z,100
2022-10-05T02:51:21.140Z,100
2022-10-05T02:52:21.146Z,100
2022-10-05T02:53:21.146Z,100
2022-10-05T02:54:21.128Z,100
2022-10-05T02:55:21.124Z,100
2022-10-05T02:56:21.137Z,100
2022-10-05T02:57:21.126Z,100
2022-10-05T02:58:21.195Z,100
2022-10-05T02:59:21.132Z,100
2022-10-05T03:00:21.139Z,100
2022-10-05T03:01:21.224Z,100
2022-10-05T03:02:21.208Z,100
2022-10-05T03:03:21.150Z,100
2022-10-05T03:04:21.143Z,100
2022-10-05T03:05:21.130Z,100
2022-10-05T03:06:21.150Z,100
2022-10-05T03:07:21.129Z,100
2022-10-05T03:08:21.126Z,100
2022-10-05T03:09:21.133Z,100
2022-10-05T03:10:21.135Z,100
2022-10-05T03:11:21.130Z,100
2022-10-05T03:12:21.155Z,100
2022-10-05T03:13:21.163Z,100
2022-10-05T03:14:21.132Z,100
2022-10-05T03:15:21.133Z,100
2022-10-05T03:16:21.159Z,100
2022-10-05T03:17:21.123Z,100
2022-10-05T03:18:21.121Z,100
2022-10-05T03:19:21.129Z,100
2022-10-05T03:20:21.135Z,100
2022-10-05T03:21:21.136Z,100
2022-10-05T03:22:21.138Z,100
2022-10-05T03:23:21.160Z,100
2022-10-05T03:24:21.168Z,100
2022-10-05T03:25:21.117Z,100
2022-10-05T03:26:21.150Z,100
2022-10-05T03:27:21.140Z,100
2022-10-05T03:28:21.188Z,100
2022-10-05T03:29:21.128Z,100
2022-10-05T03:30:21.118Z,100
2022-10-05T03:31:21.190Z,100
2022-10-05T03:32:21.136Z,100
2022-10-05T03:33:21.116Z,100
2022-10-05T03:34:21.146Z,100
2022-10-05T03:35:21.130Z,100
2022-10-05T03:36:21.136Z,100
2022-10-05T03:37:21.122Z,100
2022-10-05T03:38:21.203Z,100
2022-10-05T03:39:21.115Z,100
2022-10-05T03:40:21.229Z,100
2022-10-05T03:41:21.313Z,100
2022-10-05T03:42:21.145Z,100
2022-10-05T03:43:22.499Z,100
2022-10-05T03:44:21.317Z,100
2022-10-05T03:45:21.676Z,100
2022-10-05T03:46:21.417Z,100
2022-10-05T03:47:21.626Z,100
2022-10-05T03:48:21.699Z,100
2022-10-05T03:49:21.956Z,100
2022-10-05T03:50:22.192Z,100
2022-10-05T03:51:21.245Z,100
2022-10-05T03:52:21.140Z,100
2022-10-05T03:53:21.130Z,100
2022-10-05T03:54:21.385Z,100
2022-10-05T03:55:21.143Z,100
2022-10-05T03:56:21.130Z,100
2022-10-05T03:57:21.122Z,100
2022-10-05T03:58:21.125Z,100
2022-10-05T03:59:21.119Z,100
2022-10-05T04:00:21.132Z,100
2022-10-05T04:01:21.199Z,100
2022-10-05T04:02:21.182Z,100
2022-10-05T04:03:21.133Z,100
2022-10-05T04:04:21.135Z,100
2022-10-05T04:05:21.139Z,100
2022-10-05T04:06:21.144Z,100
2022-10-05T04:07:21.229Z,100
2022-10-05T04:08:21.140Z,100
2022-10-05T04:09:21.123Z,100
2022-10-05T04:10:21.108Z,100
2022-10-05T04:11:21.133Z,100
2022-10-05T04:12:21.134Z,100
2022-10-05T04:13:21.153Z,100
2022-10-05T04:14:21.153Z,100
2022-10-05T04:15:21.233Z,100
2022-10-05T04:16:21.311Z,100
2022-10-05T04:17:21.455Z,100
2022-10-05T04:18:21.325Z,100
2022-10-05T04:19:21.337Z,100
2022-10-05T04:20:21.289Z,100
2022-10-05T04:21:25.474Z,100
2022-10-05T04:22:21.897Z,100
2022-10-05T04:23:21.198Z,100
2022-10-05T04:24:21.422Z,100
2022-10-05T04:25:21.765Z,100
2022-10-05T04:26:21.472Z,100
2022-10-05T04:27:21.733Z,100
2022-10-05T04:28:22.063Z,100
2022-10-05T04:29:21.246Z,100
2022-10-05T04:30:21.213Z,100
2022-10-05T04:31:21.491Z,100
2022-10-05T04:32:21.777Z,100
2022-10-05T04:33:21.137Z,100
2022-10-05T04:34:21.424Z,100
2022-10-05T04:35:21.292Z,100
2022-10-05T04:36:21.137Z,100
2022-10-05T04:37:21.134Z,100
2022-10-05T04:38:21.272Z,100
2022-10-05T04:39:21.193Z,100
2022-10-05T04:40:21.120Z,100
2022-10-05T04:41:21.122Z,100
2022-10-05T04:42:21.119Z,100
2022-10-05T04:43:21.250Z,100
2022-10-05T04:44:21.131Z,100
2022-10-05T04:45:21.208Z,100
2022-10-05T04:46:21.436Z,100
2022-10-05T04:47:21.125Z,100
2022-10-05T04:48:21.123Z,100
2022-10-05T04:49:21.313Z,100
2022-10-05T04:50:21.187Z,100
2022-10-05T04:51:21.135Z,100
2022-10-05T04:52:21.166Z,100
2022-10-05T04:53:21.439Z,100
2022-10-05T04:54:21.127Z,100
2022-10-05T04:55:21.118Z,100
2022-10-05T04:56:21.127Z,100
2022-10-05T04:57:21.134Z,100
2022-10-05T04:58:21.128Z,100
2022-10-05T04:59:21.144Z,100
2022-10-05T05:00:21.127Z,100
2022-10-05T05:01:21.171Z,100
2022-10-05T05:02:21.139Z,100
2022-10-05T05:03:21.181Z,100
2022-10-05T05:04:21.138Z,100
2022-10-05T05:05:21.124Z,100
2022-10-05T05:06:21.148Z,100
2022-10-05T05:07:21.129Z,100
2022-10-05T05:08:21.135Z,100
2022-10-05T05:09:21.134Z,100
2022-10-05T05:10:21.120Z,100
2022-10-05T05:11:25.187Z,100
2022-10-05T05:12:21.143Z,100
2022-10-05T05:13:21.114Z,100
2022-10-05T05:14:21.129Z,100
2022-10-05T05:15:21.116Z,100
2022-10-05T05:16:21.237Z,100
2022-10-05T05:17:21.150Z,100
2022-10-05T05:18:21.119Z,100
2022-10-05T05:19:21.132Z,100
2022-10-05T05:20:21.135Z,100
2022-10-05T05:21:21.135Z,100
2022-10-05T05:22:21.122Z,100
2022-10-05T05:23:21.129Z,100
2022-10-05T05:24:21.123Z,100
2022-10-05T05:25:21.111Z,100
2022-10-05T05:26:21.353Z,100
2022-10-05T05:27:21.727Z,100
2022-10-05T05:28:21.706Z,100
2022-10-05T05:29:20.968Z,100
2022-10-05T05:30:21.251Z,100
2022-10-05T05:31:21.632Z,100
2022-10-05T05:32:21.840Z,100
2022-10-05T05:33:21.282Z,100
2022-10-05T05:34:21.646Z,100
2022-10-05T05:35:22.102Z,100
2022-10-05T05:36:24.122Z,100
2022-10-05T05:37:21.363Z,100
2022-10-05T05:38:21.404Z,100
2022-10-05T05:39:21.123Z,100
2022-10-05T05:40:21.268Z,100
2022-10-05T05:41:21.483Z,100
2022-10-05T05:42:21.134Z,100
2022-10-05T05:43:21.130Z,100
2022-10-05T05:44:21.208Z,100
2022-10-05T05:45:21.152Z,100
2022-10-05T05:46:26.939Z,100
2022-10-05T05:47:21.388Z,100
2022-10-05T05:48:21.179Z,100
2022-10-05T05:49:21.148Z,100
2022-10-05T05:50:21.387Z,100
2022-10-05T05:51:21.165Z,100
2022-10-05T05:52:21.127Z,100
2022-10-05T05:53:21.297Z,100
2022-10-05T05:54:21.498Z,100
2022-10-05T05:55:21.142Z,100
2022-10-05T05:56:21.142Z,100
2022-10-05T05:57:21.234Z,100
2022-10-05T05:58:21.151Z,100
2022-10-05T05:59:21.145Z,100
2022-10-05T06:00:21.125Z,100
2022-10-05T06:01:33.096Z,100
2022-10-05T06:02:21.194Z,100
2022-10-05T06:03:21.183Z,100
2022-10-05T06:04:21.144Z,100
2022-10-05T06:05:21.137Z,100
2022-10-05T06:06:21.136Z,100
2022-10-05T06:07:21.137Z,100
2022-10-05T06:08:21.122Z,100
2022-10-05T06:09:21.175Z,100
2022-10-05T06:10:21.224Z,100
2022-10-05T06:11:21.136Z,100
2022-10-05T06:12:21.126Z,100
2022-10-05T06:13:21.121Z,100
2022-10-05T06:14:21.141Z,100
2022-10-05T06:15:21.137Z,100
2022-10-05T06:16:21.182Z,100
2022-10-05T06:17:21.136Z,100
2022-10-05T06:18:21.143Z,100
2022-10-05T06:19:21.162Z,100
2022-10-05T06:20:21.135Z,100
2022-10-05T06:21:21.239Z,100
2022-10-05T06:22:21.130Z,100
2022-10-05T06:23:21.140Z,100
2022-10-05T06:24:21.137Z,100
2022-10-05T06:25:21.115Z,100
2022-10-05T06:26:21.124Z,100
2022-10-05T06:27:21.131Z,100
2022-10-05T06:28:21.208Z,100
2022-10-05T06:29:21.175Z,100
2022-10-05T06:30:21.130Z,100
2022-10-05T06:31:21.218Z,100
2022-10-05T06:32:21.184Z,100
2022-10-05T06:33:21.130Z,100
2022-10-05T06:34:21.127Z,100
2022-10-05T06:35:21.217Z,100
2022-10-05T06:36:21.123Z,100
2022-10-05T06:37:21.209Z,100
2022-10-05T06:38:21.097Z,100
2022-10-05T06:39:21.183Z,100
2022-10-05T06:40:21.225Z,100
2022-10-05T06:41:21.159Z,100
2022-10-05T06:42:21.252Z,100
2022-10-05T06:43:21.675Z,100
2022-10-05T06:44:21.258Z,100
2022-10-05T06:45:21.443Z,100
2022-10-05T06:46:21.346Z,100
2022-10-05T06:47:21.620Z,100
2022-10-05T06:48:21.966Z,100
2022-10-05T06:49:22.215Z,100
2022-10-05T06:50:21.592Z,100
2022-10-05T06:51:21.898Z,100
2022-10-05T06:52:22.201Z,100
2022-10-05T06:53:21.964Z,100
2022-10-05T06:54:22.168Z,100
2022-10-05T06:55:21.703Z,100
2022-10-05T06:56:21.221Z,100
2022-10-05T06:57:21.449Z,100
2022-10-05T06:58:21.906Z,100
2022-10-05T06:59:21.478Z,100
2022-10-05T07:00:21.209Z,100
2022-10-05T07:01:21.540Z,100
2022-10-05T07:02:21.732Z,100
2022-10-05T07:03:21.518Z,100
2022-10-05T07:04:21.409Z,100
2022-10-05T07:05:21.674Z,100
2022-10-05T07:06:21.272Z,100
2022-10-05T07:07:21.384Z,100
2022-10-05T07:08:21.835Z,100
2022-10-05T07:09:21.133Z,100
2022-10-05T07:10:21.164Z,100
2022-10-05T07:11:21.139Z,100
2022-10-05T07:12:21.211Z,100
2022-10-05T07:13:21.141Z,100
2022-10-05T07:14:21.146Z,100
2022-10-05T07:15:21.148Z,100
2022-10-05T07:16:21.179Z,100
2022-10-05T07:17:21.146Z,100
2022-10-05T07:18:21.140Z,100
2022-10-05T07:19:21.144Z,100
2022-10-05T07:20:21.151Z,100
2022-10-05T07:21:21.134Z,100
2022-10-05T07:22:21.142Z,100
2022-10-05T07:23:21.166Z,100
2022-10-05T07:24:21.137Z,100
2022-10-05T07:25:21.125Z,100
2022-10-05T07:26:21.124Z,100
2022-10-05T07:27:21.127Z,100
2022-10-05T07:28:21.493Z,100
2022-10-05T07:29:21.134Z,100
2022-10-05T07:30:21.133Z,100
2022-10-05T07:31:21.371Z,100
2022-10-05T07:32:21.140Z,100
2022-10-05T07:33:21.231Z,100
2022-10-05T07:34:21.219Z,100
2022-10-05T07:35:21.216Z,100
2022-10-05T07:36:21.134Z,100
2022-10-05T07:37:21.139Z,100
2022-10-05T07:38:21.127Z,100
2022-10-05T07:39:23.463Z,100
2022-10-05T07:40:21.130Z,100
2022-10-05T07:41:21.128Z,100
2022-10-05T07:42:21.137Z,100
2022-10-05T07:43:21.130Z,100
2022-10-05T07:44:21.132Z,100
2022-10-05T07:45:21.140Z,100
2022-10-05T07:46:21.234Z,100
2022-10-05T07:47:21.260Z,100
2022-10-05T07:48:21.121Z,100
2022-10-05T07:49:21.146Z,100
2022-10-05T07:50:21.126Z,100
2022-10-05T07:51:21.133Z,100
2022-10-05T07:52:21.131Z,100
2022-10-05T07:53:21.143Z,100
2022-10-05T07:54:21.139Z,100
2022-10-05T07:55:21.132Z,100
2022-10-05T07:56:21.145Z,100
2022-10-05T07:57:21.155Z,100
2022-10-05T07:58:21.186Z,100
2022-10-05T07:59:21.114Z,100
2022-10-05T08:00:21.261Z,100
2022-10-05T08:01:21.151Z,100
2022-10-05T08:02:21.400Z,100
2022-10-05T08:03:21.179Z,100
2022-10-05T08:04:21.132Z,100
2022-10-05T08:05:21.238Z,100
2022-10-05T08:06:21.558Z,100
2022-10-05T08:07:21.162Z,100
2022-10-05T08:08:22.182Z,100
2022-10-05T08:09:21.423Z,100
2022-10-05T08:10:21.156Z,100
2022-10-05T08:11:21.129Z,100
2022-10-05T08:12:21.126Z,100
2022-10-05T08:13:21.128Z,100
2022-10-05T08:14:21.126Z,100
2022-10-05T08:15:21.139Z,100
2022-10-05T08:16:21.187Z,100
2022-10-05T08:17:27.501Z,100
2022-10-05T08:18:21.125Z,100
2022-10-05T08:19:21.126Z,100
2022-10-05T08:20:21.227Z,100
2022-10-05T08:21:21.137Z,100
2022-10-05T08:22:21.116Z,100
2022-10-05T08:23:21.125Z,100
2022-10-05T08:24:21.136Z,100
2022-10-05T08:25:21.151Z,100
2022-10-05T08:26:21.144Z,100
2022-10-05T08:27:21.135Z,100
2022-10-05T08:28:21.182Z,100
2022-10-05T08:29:21.121Z,100
2022-10-05T08:30:21.235Z,100
2022-10-05T08:31:21.135Z,100
2022-10-05T08:32:21.134Z,100
2022-10-05T08:33:21.136Z,100
2022-10-05T08:34:21.129Z,100
2022-10-05T08:35:21.123Z,100
2022-10-05T08:36:21.202Z,100
2022-10-05T08:37:21.110Z,100
2022-10-05T08:38:21.421Z,100
2022-10-05T08:39:21.889Z,100
2022-10-05T08:40:21.683Z,100
2022-10-05T08:41:20.906Z,100
2022-10-05T08:42:21.279Z,100
2022-10-05T08:43:21.420Z,100
2022-10-05T08:44:21.723Z,100
2022-10-05T08:45:21.384Z,100
2022-10-05T08:46:21.656Z,100
2022-10-05T08:47:21.896Z,100
2022-10-05T08:48:21.129Z,100
2022-10-05T08:49:21.224Z,100
2022-10-05T08:50:21.376Z,100
2022-10-05T08:51:21.143Z,100
2022-10-05T08:52:21.233Z,100
2022-10-05T08:53:21.143Z,100
2022-10-05T08:54:21.411Z,100
2022-10-05T08:55:21.125Z,100
2022-10-05T08:56:28.740Z,100
2022-10-05T08:57:21.113Z,100
2022-10-05T08:58:21.170Z,100
2022-10-05T08:59:21.117Z,100
2022-10-05T09:00:21.217Z,100
2022-10-05T09:01:21.295Z,100
2022-10-05T09:02:21.264Z,100
2022-10-05T09:03:21.145Z,100
2022-10-05T09:04:21.110Z,100
2022-10-05T09:05:21.384Z,100
2022-10-05T09:06:21.123Z,100
2022-10-05T09:07:21.123Z,100
2022-10-05T09:08:21.278Z,100
2022-10-05T09:09:21.155Z,100
2022-10-05T09:10:21.122Z,100
2022-10-05T09:11:21.146Z,100
2022-10-05T09:12:21.135Z,100
2022-10-05T09:13:21.157Z,100
2022-10-05T09:14:21.131Z,100
2022-10-05T09:15:27.853Z,100
2022-10-05T09:16:21.251Z,100
2022-10-05T09:17:21.133Z,100
2022-10-05T09:18:21.153Z,100
2022-10-05T09:19:21.154Z,100
2022-10-05T09:20:21.142Z,100
2022-10-05T09:21:21.137Z,100
2022-10-05T09:22:21.141Z,100
2022-10-05T09:23:21.158Z,100
2022-10-05T09:24:21.141Z,100
2022-10-05T09:25:21.128Z,100
2022-10-05T09:26:21.144Z,100
2022-10-05T09:27:21.135Z,100
2022-10-05T09:28:21.160Z,100
2022-10-05T09:29:21.138Z,100
2022-10-05T09:30:21.133Z,100
2022-10-05T09:31:21.267Z,100
2022-10-05T09:32:21.126Z,100
2022-10-05T09:33:21.123Z,100
2022-10-05T09:34:21.145Z,100
2022-10-05T09:35:21.164Z,99.52
2022-10-05T09:36:21.132Z,98.81
2022-10-05T09:37:21.136Z,98.87
2022-10-05T09:38:21.139Z,98.78
2022-10-05T09:39:21.253Z,98.29
2022-10-05T09:41:21.153Z,97.17
2022-10-05T09:42:21.132Z,96.9
2022-10-05T09:43:21.158Z,96.43
2022-10-05T09:44:21.162Z,96.02
2022-10-05T09:45:24.141Z,96.48
2022-10-05T09:46:21.225Z,96.2
2022-10-05T09:47:21.132Z,96.35
2022-10-05T09:48:21.106Z,95.95
2022-10-05T09:49:21.122Z,95.17
2022-10-05T09:50:21.199Z,94.64
2022-10-05T09:51:21.118Z,95.05
2022-10-05T09:52:21.274Z,95.45
2022-10-05T09:53:21.569Z,94.76
2022-10-05T09:54:21.355Z,94.5
2022-10-05T09:55:21.563Z,94.6
2022-10-05T09:56:21.518Z,94.09
2022-10-05T09:57:21.755Z,95.17
2022-10-05T09:58:21.398Z,92.99
2022-10-05T09:59:21.448Z,93.63
2022-10-05T10:00:21.697Z,93.8
2022-10-05T10:01:34.200Z,92.72
2022-10-05T10:02:21.623Z,93.34
2022-10-05T10:03:21.366Z,90.86
2022-10-05T10:04:21.389Z,91.95
2022-10-05T10:05:21.678Z,92.78
2022-10-05T10:06:21.604Z,92.11
2022-10-05T10:07:21.416Z,90.9
2022-10-05T10:08:22.158Z,91.75
2022-10-05T10:09:21.093Z,92.6
2022-10-05T10:10:21.307Z,92.42
2022-10-05T10:11:21.166Z,91.58
2022-10-05T10:12:21.431Z,92.12
2022-10-05T10:13:21.121Z,90.79
2022-10-05T10:14:21.396Z,91.59
2022-10-05T10:15:21.337Z,90.96
2022-10-05T10:16:21.933Z,90.23
2022-10-05T10:17:21.709Z,89.8
2022-10-05T10:18:21.550Z,90.71
2022-10-05T10:19:21.516Z,90.83
2022-10-05T10:20:21.429Z,89.84
2022-10-05T10:21:21.555Z,89.31
2022-10-05T10:22:21.119Z,88.56
2022-10-05T10:23:21.399Z,87.72
2022-10-05T10:24:21.150Z,87.21
2022-10-05T10:25:21.121Z,88.03
2022-10-05T10:26:21.142Z,87.28
2022-10-05T10:27:21.153Z,87.88
2022-10-05T10:28:21.163Z,88.4
2022-10-05T10:29:21.222Z,88.47
2022-10-05T10:30:21.905Z,88.72
2022-10-05T10:31:21.163Z,87.49
2022-10-05T10:32:21.138Z,87.81
2022-10-05T10:33:21.133Z,88.26
2022-10-05T10:34:21.142Z,87.14
2022-10-05T10:35:21.196Z,88.34
2022-10-05T10:36:21.150Z,88.45
2022-10-05T10:37:21.132Z,88.23
2022-10-05T10:38:21.133Z,89.3
2022-10-05T10:39:21.139Z,88.93
2022-10-05T10:40:21.292Z,89.41
2022-10-05T10:41:21.131Z,88.99
2022-10-05T10:42:27.190Z,87.43
2022-10-05T10:43:21.133Z,87.85
2022-10-05T10:44:21.132Z,87.95
2022-10-05T10:45:21.188Z,88.24
2022-10-05T10:46:21.206Z,89.23
2022-10-05T10:47:21.125Z,88
2022-10-05T10:48:21.140Z,88.47
2022-10-05T10:49:21.130Z,87.92
2022-10-05T10:50:21.149Z,87.74
2022-10-05T10:51:21.134Z,87.43
2022-10-05T10:52:21.135Z,87.98
2022-10-05T10:53:21.135Z,87.77
2022-10-05T10:54:21.133Z,87.29
2022-10-05T10:55:21.139Z,87.28
2022-10-05T10:56:21.271Z,87.44
2022-10-05T10:57:21.149Z,86.9
2022-10-05T10:58:21.207Z,87.91
2022-10-05T10:59:21.124Z,88.44
2022-10-05T11:00:21.159Z,87.68
2022-10-05T11:01:21.216Z,86.3
2022-10-05T11:02:21.228Z,87.39
2022-10-05T11:03:21.291Z,88.46
2022-10-05T11:04:21.132Z,87.64
2022-10-05T11:05:21.143Z,86.76
2022-10-05T11:06:21.133Z,87.46
2022-10-05T11:07:21.136Z,87.76
2022-10-05T11:08:21.129Z,87.12
2022-10-05T11:09:21.133Z,86.84
2022-10-05T11:10:21.118Z,87.58
2022-10-05T11:11:21.146Z,85.84
2022-10-05T11:12:21.135Z,86.44
2022-10-05T11:13:21.125Z,87.39
2022-10-05T11:14:21.148Z,87.56
2022-10-05T11:15:21.130Z,87.6
2022-10-05T11:16:22.132Z,86.76
2022-10-05T11:17:21.124Z,87.19
2022-10-05T11:18:21.132Z,86.3
2022-10-05T11:19:21.678Z,84.25
2022-10-05T11:20:21.138Z,84.01
2022-10-05T11:21:21.131Z,83.88
2022-10-05T11:22:21.192Z,83.91
2022-10-05T11:23:21.138Z,83.61
2022-10-05T11:24:21.249Z,84.17
2022-10-05T11:25:21.135Z,84.89
2022-10-05T11:26:21.123Z,83.31
2022-10-05T11:28:21.195Z,82.65
2022-10-05T11:29:21.127Z,82.81
2022-10-05T11:30:21.136Z,79.45
2022-10-05T11:31:21.177Z,79.88
2022-10-05T11:32:21.132Z,81.25
2022-10-05T11:34:21.141Z,78.62
2022-10-05T11:35:21.127Z,79.11
2022-10-05T11:36:21.157Z,75.63
2022-10-05T11:37:21.135Z,74.6
2022-10-05T11:38:21.133Z,75.34
2022-10-05T11:39:21.127Z,74.25
2022-10-05T11:40:21.132Z,73.78
2022-10-05T11:41:21.129Z,74.76
2022-10-05T11:42:21.136Z,76.56
2022-10-05T11:43:21.135Z,76.48
2022-10-05T11:44:21.198Z,75.91
2022-10-05T11:45:21.169Z,76.77
2022-10-05T11:46:21.203Z,76.28
2022-10-05T11:47:21.105Z,77.25
2022-10-05T11:48:21.109Z,76.26
2022-10-05T11:49:21.122Z,76.31
2022-10-05T11:50:21.106Z,74.13
2022-10-05T11:51:28.539Z,70.76
2022-10-05T11:52:21.786Z,69.41
2022-10-05T11:53:21.760Z,67.66
2022-10-05T11:54:20.986Z,67.48
2022-10-05T11:55:21.334Z,67.05
2022-10-05T11:56:21.660Z,66.88
2022-10-05T11:57:21.364Z,68.4
2022-10-05T11:58:21.624Z,68.67
2022-10-05T11:59:21.734Z,68.52
2022-10-05T12:00:22.155Z,68.75
2022-10-05T12:01:21.264Z,66.56
2022-10-05T12:02:21.755Z,66.15
2022-10-05T12:03:21.591Z,66.02
2022-10-05T12:04:21.256Z,65.82
2022-10-05T12:05:21.529Z,65.88
2022-10-05T12:06:21.126Z,66.3
2022-10-05T12:07:21.418Z,67.77
2022-10-05T12:08:21.243Z,67.12
2022-10-05T12:09:22.025Z,66.9
2022-10-05T12:10:21.137Z,66.67
2022-10-05T12:11:21.134Z,66.5
2022-10-05T12:12:21.153Z,67.76
2022-10-05T12:13:21.132Z,66.25
2022-10-05T12:14:21.150Z,65.83
2022-10-05T12:15:21.152Z,65.31
2022-10-05T12:16:21.169Z,65.85
2022-10-05T12:17:21.129Z,66.42
2022-10-05T12:18:21.142Z,67.14
2022-10-05T12:19:21.145Z,67.04
2022-10-05T12:20:21.158Z,67.74
2022-10-05T12:21:21.138Z,68.09
2022-10-05T12:22:21.136Z,68.7
2022-10-05T12:23:21.133Z,67.34
2022-10-05T12:24:27.289Z,67.71
2022-10-05T12:25:21.134Z,66.14
2022-10-05T12:26:21.136Z,66.53
2022-10-05T12:27:21.136Z,66.57
2022-10-05T12:28:21.201Z,67.61
2022-10-05T12:29:21.142Z,67.6
2022-10-05T12:30:21.141Z,67.68
2022-10-05T12:31:21.142Z,67.85
2022-10-05T12:32:21.120Z,65.98
2022-10-05T12:33:21.148Z,67.07
2022-10-05T12:34:21.123Z,66.45
2022-10-05T12:35:43.696Z,67.81
2022-10-05T12:36:21.132Z,67.65
2022-10-05T12:37:21.156Z,67.12
2022-10-05T12:38:21.150Z,66.71
2022-10-05T12:39:21.132Z,67.95
2022-10-05T12:40:21.139Z,67.47
2022-10-05T12:41:21.148Z,66.79
2022-10-05T12:42:21.345Z,64.79
2022-10-05T12:43:21.154Z,64.86
2022-10-05T12:44:21.127Z,65.23
2022-10-05T12:45:21.126Z,64.29
2022-10-05T12:46:21.131Z,64.7
2022-10-05T12:47:21.130Z,64.38
2022-10-05T12:48:21.144Z,65.25
2022-10-05T12:49:21.139Z,65.38
2022-10-05T12:50:21.140Z,62.96
2022-10-05T12:51:21.173Z,63.44
2022-10-05T12:52:21.217Z,62.23
2022-10-05T12:53:21.126Z,62.47
2022-10-05T12:54:21.105Z,62.56
2022-10-05T12:55:21.119Z,62.59
2022-10-05T12:56:21.207Z,63.33
2022-10-05T12:57:21.129Z,64.13
2022-10-05T12:58:21.230Z,64.14
2022-10-05T12:59:21.098Z,64.62
2022-10-05T13:00:24.147Z,64.35
2022-10-05T13:01:21.196Z,63.04
2022-10-05T13:02:21.679Z,63.67
2022-10-05T13:03:21.195Z,62.36
2022-10-05T13:04:21.213Z,62.06
2022-10-05T13:05:21.345Z,62.68
2022-10-05T13:06:21.115Z,62.75
2022-10-05T13:07:21.395Z,62.53
2022-10-05T13:08:21.514Z,59.88
2022-10-05T13:09:21.490Z,59.93
2022-10-05T13:10:21.248Z,60.22
2022-10-05T13:11:21.353Z,60.06
2022-10-05T13:12:21.597Z,60.89
2022-10-05T13:13:21.355Z,61.38
2022-10-05T13:14:21.676Z,62.47
2022-10-05T13:15:21.114Z,59.89
2022-10-05T13:16:21.138Z,60.76
2022-10-05T13:17:21.182Z,60.07
2022-10-05T13:18:21.118Z,61.46
2022-10-05T13:19:21.120Z,61.14
2022-10-05T13:20:22.133Z,60.7
2022-10-05T13:21:21.188Z,60.36
2022-10-05T13:22:21.473Z,60.18
2022-10-05T13:23:21.441Z,61.3
2022-10-05T13:24:21.200Z,62.16
2022-10-05T13:25:21.327Z,61.6
2022-10-05T13:26:21.605Z,59.59
2022-10-05T13:27:21.255Z,60.65
2022-10-05T13:28:21.374Z,60.63
2022-10-05T13:29:21.512Z,60.64
2022-10-05T13:30:21.161Z,61.35
2022-10-05T13:31:21.427Z,61.23
2022-10-05T13:32:21.673Z,61.71
2022-10-05T13:33:21.488Z,62.28